Time;durP1;ratioP1;P1;durP2;ratioP2;P2;SDS_P1;SDS_P2;PMS_P1;PMS_P2;Temp;Humidity;BMP_temperature;BMP_pressure;BME280_temperature;BME280_humidity;BME280_pressure;Samples;Min_cycle;Max_cycle;Signal;HPM_P1;HPM_P2
2021/06/05 00:01:51;;;;;;;23.27;15.18;;;;;;;12.44;76.91;98622.15;1750343;82;21327;-76
2021/06/05 00:04:20;;;;;;;28.32;14.73;;;;;;;12.40;76.44;98617.83;1750172;82;21419;-76
2021/06/05 00:06:46;;;;;;;22.45;15.65;;;;;;;12.41;76.93;98618.09;1749843;82;20974;-77
2021/06/05 00:09:12;;;;;;;21.57;15.63;;;;;;;12.42;75.92;98610.20;1750150;81;20969;-77
2021/06/05 00:11:38;;;;;;;22.70;14.35;;;;;;;12.41;76.25;98611.30;1751000;82;20921;-77
2021/06/05 00:14:06;;;;;;;23.50;15.48;;;;;;;12.49;74.84;98609.91;1750487;82;20878;-77
2021/06/05 00:16:40;;;;;;;20.92;15.30;;;;;;;12.54;74.86;98613.14;1750356;82;20957;-77
2021/06/05 00:19:06;;;;;;;24.45;13.60;;;;;;;12.58;74.15;98612.87;1749256;82;20926;-76
2021/06/05 00:21:33;;;;;;;21.00;14.83;;;;;;;12.53;75.35;98610.16;1750456;82;21476;-75
2021/06/05 00:23:59;;;;;;;21.90;13.62;;;;;;;12.52;75.55;98610.70;1750208;81;21076;-75
2021/06/05 00:26:25;;;;;;;19.20;13.50;;;;;;;12.54;75.41;98609.06;1750079;82;21150;-75
2021/06/05 00:28:52;;;;;;;18.98;13.40;;;;;;;12.62;74.94;98612.02;1750324;82;20898;-75
2021/06/05 00:31:18;;;;;;;20.95;14.25;;;;;;;12.71;74.33;98606.81;1722623;82;21036;-75
2021/06/05 00:33:44;;;;;;;21.62;13.68;;;;;;;12.73;73.88;98599.19;1722646;82;20937;-75
2021/06/05 00:36:11;;;;;;;26.35;15.32;;;;;;;12.78;73.51;98599.17;1750199;81;20958;-75
2021/06/05 00:38:38;;;;;;;25.10;15.68;;;;;;;12.77;73.48;98602.17;1722906;82;21152;-75
2021/06/05 00:41:05;;;;;;;20.43;13.20;;;;;;;12.83;73.15;98602.42;1750192;82;20915;-75
2021/06/05 00:43:37;;;;;;;19.57;12.60;;;;;;;12.82;73.24;98601.61;1750227;82;20950;-75
2021/06/05 00:46:03;;;;;;;20.45;14.07;;;;;;;12.80;73.35;98597.52;1750297;82;20952;-76
2021/06/05 00:48:29;;;;;;;18.75;12.88;;;;;;;12.81;73.57;98602.68;1750273;82;20957;-76
2021/06/05 00:50:56;;;;;;;18.80;11.75;;;;;;;12.85;73.36;98596.16;1750129;82;21295;-76
2021/06/05 00:53:24;;;;;;;15.80;10.72;;;;;;;12.92;73.05;98597.47;1750303;82;21410;-76
2021/06/05 00:55:52;;;;;;;18.17;12.93;;;;;;;12.90;72.72;98591.51;1750285;82;25798;-76
2021/06/05 00:58:19;;;;;;;17.95;12.33;;;;;;;12.83;72.60;98587.47;1723091;82;21032;-76
2021/06/05 01:00:54;;;;;;;20.68;13.45;;;;;;;12.77;72.77;98588.58;1750540;82;20894;-76
2021/06/05 01:03:20;;;;;;;15.80;12.65;;;;;;;12.70;73.79;98584.80;1722613;82;21489;-77
2021/06/05 01:05:48;;;;;;;14.28;11.10;;;;;;;12.67;73.49;98582.10;1698858;82;21435;-77
2021/06/05 01:08:38;;;;;;;18.20;11.80;;;;;;;12.64;73.76;98575.84;1750565;82;20934;-76
2021/06/05 01:11:16;;;;;;;17.00;11.68;;;;;;;12.58;73.67;98568.83;1750221;82;21317;-77
2021/06/05 01:14:07;;;;;;;19.12;12.00;;;;;;;12.58;73.99;98581.61;1750405;81;20969;-76
2021/06/05 01:16:33;;;;;;;18.90;10.25;;;;;;;12.56;74.33;98571.02;1750107;81;21318;-76
2021/06/05 01:19:08;;;;;;;17.80;11.05;;;;;;;12.47;73.98;98567.22;1750303;82;20878;-76
2021/06/05 01:22:16;;;;;;;16.15;11.25;;;;;;;12.37;74.80;98564.55;1749385;82;21307;-76
2021/06/05 01:24:48;;;;;;;18.55;12.03;;;;;;;12.28;76.28;98565.67;1750261;82;21203;-77
2021/06/05 01:27:27;;;;;;;16.57;11.57;;;;;;;12.25;77.03;98561.35;1722784;82;21371;-77
2021/06/05 01:29:56;;;;;;;20.52;12.20;;;;;;;12.32;74.81;98565.41;1750328;82;21308;-77
2021/06/05 01:32:22;;;;;;;16.15;11.50;;;;;;;12.30;75.00;98563.48;1722971;82;21018;-76
2021/06/05 01:34:50;;;;;;;16.40;11.00;;;;;;;12.37;75.88;98561.84;1750503;82;21093;-76
2021/06/05 01:37:17;;;;;;;18.20;11.87;;;;;;;12.51;74.81;98545.75;1722933;82;21005;-76
2021/06/05 01:39:46;;;;;;;17.20;11.20;;;;;;;12.59;74.39;98545.17;1743891;81;20970;-76
2021/06/05 01:42:17;;;;;;;17.12;11.50;;;;;;;12.51;76.71;98547.11;1692055;82;21221;-77
2021/06/05 01:44:45;;;;;;;15.28;10.80;;;;;;;12.44;76.40;98550.12;1714425;82;21033;-76
2021/06/05 01:47:12;;;;;;;17.60;12.47;;;;;;;12.43;75.20;98545.23;1736469;82;26476;-76
2021/06/05 01:49:38;;;;;;;16.40;10.72;;;;;;;12.37;76.87;98550.97;1736085;82;20962;-76
2021/06/05 01:52:20;;;;;;;21.12;12.50;;;;;;;12.43;76.32;98547.95;1736362;82;21640;-77
2021/06/05 01:55:02;;;;;;;18.50;13.00;;;;;;;12.47;77.42;98538.69;1735804;82;21090;-76
2021/06/05 01:57:31;;;;;;;16.00;12.15;;;;;;;12.54;76.34;98537.84;1736364;82;21435;-77
2021/06/05 01:59:57;;;;;;;15.53;11.55;;;;;;;12.61;76.50;98541.07;1736425;82;21328;-76
2021/06/05 02:02:25;;;;;;;16.15;11.68;;;;;;;12.61;75.89;98532.91;1736251;82;20934;-76
2021/06/05 02:04:52;;;;;;;22.22;12.37;;;;;;;12.57;74.85;98527.78;1736329;82;20983;-76
2021/06/05 02:07:20;;;;;;;17.20;12.37;;;;;;;12.43;75.00;98532.20;1736646;82;21642;-76
2021/06/05 02:09:51;;;;;;;21.15;11.33;;;;;;;12.36;75.87;98526.25;1736481;82;21450;-76
2021/06/05 02:12:26;;;;;;;21.20;12.73;;;;;;;12.37;75.55;98529.22;1716345;82;20983;-77
2021/06/05 02:15:11;;;;;;;17.65;11.38;;;;;;;12.35;76.72;98525.44;1735140;82;21408;-76
2021/06/05 02:17:39;;;;;;;12.78;10.65;;;;;;;12.39;76.88;98523.80;1736333;82;21403;-76
2021/06/05 02:20:11;;;;;;;16.45;12.05;;;;;;;12.42;76.32;98530.03;1736365;82;21313;-76
2021/06/05 02:22:37;;;;;;;15.03;10.18;;;;;;;12.43;77.59;98527.57;1736203;82;20994;-76
2021/06/05 02:25:05;;;;;;;15.55;10.78;;;;;;;12.45;77.13;98525.92;1736199;82;21509;-76
2021/06/05 02:27:31;;;;;;;16.17;11.05;;;;;;;12.48;76.24;98524.03;1736321;82;20970;-76
2021/06/05 02:29:57;;;;;;;16.85;12.75;;;;;;;12.42;76.17;98512.36;1715571;82;21089;-76
2021/06/05 02:32:27;;;;;;;17.15;12.20;;;;;;;12.49;75.96;98512.06;1715611;82;21037;-76
2021/06/05 02:34:55;;;;;;;17.87;10.53;;;;;;;12.59;76.73;98514.72;1736263;82;20954;-77
2021/06/05 02:37:24;;;;;;;17.10;12.25;;;;;;;12.68;75.79;98508.95;1715633;82;20982;-77
2021/06/05 02:40:01;;;;;;;18.82;12.10;;;;;;;12.73;75.83;98504.02;1741434;81;21002;-76
2021/06/05 02:42:28;;;;;;;16.17;11.00;;;;;;;12.76;75.33;98510.27;1722725;82;21025;-76
2021/06/05 02:44:55;;;;;;;17.52;12.25;;;;;;;12.81;74.37;98510.22;1750084;82;21064;-75
2021/06/05 02:47:22;;;;;;;16.48;11.08;;;;;;;12.79;74.23;98508.88;1750170;82;20973;-75
2021/06/05 02:49:48;;;;;;;17.90;12.63;;;;;;;12.85;73.87;98515.92;1750295;82;21017;-75
2021/06/05 02:52:33;;;;;;;17.17;11.38;;;;;;;12.84;73.90;98515.66;1750363;82;21442;-75
2021/06/05 02:55:09;;;;;;;14.15;9.95;;;;;;;12.88;73.81;98513.44;1750690;82;21447;-77
2021/06/05 02:57:35;;;;;;;14.95;10.48;;;;;;;12.88;73.68;98504.47;1750224;82;21764;-75
2021/06/05 03:00:01;;;;;;;15.88;10.38;;;;;;;12.88;74.34;98516.16;1750155;82;21056;-75
2021/06/05 03:02:27;;;;;;;13.62;10.40;;;;;;;12.91;74.53;98507.45;1750372;82;21044;-75
2021/06/05 03:04:53;;;;;;;19.27;11.40;;;;;;;12.97;74.41;98504.94;1750198;82;20846;-75
2021/06/05 03:07:19;;;;;;;17.60;11.90;;;;;;;13.02;73.77;98500.02;1750886;82;21477;-75
2021/06/05 03:09:45;;;;;;;15.68;11.55;;;;;;;13.04;73.42;98504.63;1750352;82;21045;-75
2021/06/05 03:12:13;;;;;;;16.85;11.03;;;;;;;13.07;73.12;98507.31;1750022;82;20907;-75
2021/06/05 03:14:39;;;;;;;18.07;11.33;;;;;;;13.05;73.81;98510.33;1750254;81;21020;-75
2021/06/05 03:17:07;;;;;;;17.75;12.23;;;;;;;13.05;74.30;98502.16;1750028;82;21320;-75
2021/06/05 03:19:34;;;;;;;17.37;11.65;;;;;;;13.05;73.38;98509.52;1750007;82;20947;-75
2021/06/05 03:22:00;;;;;;;18.90;10.53;;;;;;;13.01;73.31;98506.56;1750035;82;21310;-75
2021/06/05 03:24:25;;;;;;;17.42;10.82;;;;;;;13.10;73.01;98514.93;1750092;82;21024;-75
2021/06/05 03:26:52;;;;;;;23.77;11.48;;;;;;;13.14;73.04;98518.14;1750011;82;20984;-75
2021/06/05 03:29:18;;;;;;;15.32;11.83;;;;;;;13.17;72.77;98516.78;1698855;82;20962;-75
2021/06/05 03:31:44;;;;;;;15.75;11.28;;;;;;;13.17;72.73;98516.23;1750642;82;21017;-75
2021/06/05 03:34:10;;;;;;;18.52;12.58;;;;;;;13.16;72.60;98520.05;1722544;82;21083;-75
2021/06/05 03:36:36;;;;;;;14.80;11.15;;;;;;;13.20;73.31;98521.13;1750145;82;21076;-75
2021/06/05 03:39:04;;;;;;;14.43;10.43;;;;;;;13.23;72.73;98519.19;1750057;82;20937;-75
2021/06/05 03:41:30;;;;;;;20.68;12.78;;;;;;;13.18;73.03;98521.13;1749920;81;21363;-75
2021/06/05 03:43:56;;;;;;;14.40;10.48;;;;;;;13.18;72.86;98523.84;1750042;82;20994;-75
2021/06/05 03:46:22;;;;;;;14.60;10.50;;;;;;;13.18;72.88;98527.93;1750563;81;21755;-75
2021/06/05 03:48:48;;;;;;;16.50;11.45;;;;;;;13.24;72.88;98529.52;1750209;82;20851;-75
2021/06/05 03:51:14;;;;;;;15.98;11.33;;;;;;;13.25;74.34;98540.70;1750477;82;20858;-75
2021/06/05 03:53:40;;;;;;;16.35;11.53;;;;;;;13.22;75.82;98552.94;1750199;82;20973;-75
2021/06/05 03:56:06;;;;;;;14.45;9.83;;;;;;;13.21;76.48;98569.01;1750107;82;21949;-75
2021/06/05 03:58:40;;;;;;;16.85;9.93;;;;;;;13.22;74.56;98576.63;1750346;82;21301;-75
2021/06/05 04:01:09;;;;;;;14.55;10.23;;;;;;;13.12;74.50;98582.11;1750150;81;21474;-76
2021/06/05 04:03:35;;;;;;;19.60;12.37;;;;;;;13.13;74.24;98598.70;1750226;82;20918;-76
2021/06/05 04:06:01;;;;;;;18.30;11.00;;;;;;;13.22;74.06;98603.28;1750231;82;20835;-76
2021/06/05 04:08:27;;;;;;;15.50;10.40;;;;;;;13.29;73.64;98602.97;1750229;82;20930;-76
2021/06/05 04:10:53;;;;;;;15.85;10.75;;;;;;;13.26;74.61;98598.11;1750244;82;21148;-76
2021/06/05 04:13:19;;;;;;;14.38;10.53;;;;;;;13.32;74.52;98601.59;1750057;82;20862;-76
2021/06/05 04:15:45;;;;;;;17.07;11.55;;;;;;;13.34;74.83;98602.95;1750179;82;20965;-76
2021/06/05 04:18:31;;;;;;;15.98;9.35;;;;;;;13.33;75.55;98597.25;1722623;82;20957;-76
2021/06/05 04:20:58;;;;;;;11.25;9.25;;;;;;;13.38;74.69;98609.44;1750115;82;21021;-76
2021/06/05 04:23:24;;;;;;;14.75;11.08;;;;;;;13.40;74.53;98602.34;1750338;82;21861;-76
2021/06/05 04:25:50;;;;;;;16.45;11.12;;;;;;;13.41;74.58;98608.86;1750198;82;20907;-76
2021/06/05 04:28:17;;;;;;;15.50;10.68;;;;;;;13.46;76.21;98607.47;1750284;82;20918;-76
2021/06/05 04:30:43;;;;;;;12.60;9.90;;;;;;;13.46;77.94;98595.77;1750182;82;21356;-76
2021/06/05 04:33:12;;;;;;;13.45;10.13;;;;;;;13.41;78.80;98584.36;1750498;82;20982;-76
2021/06/05 04:35:38;;;;;;;14.38;10.10;;;;;;;13.38;80.30;98576.78;1750533;82;21162;-76
2021/06/05 04:38:04;;;;;;;12.80;9.73;;;;;;;13.38;78.00;98574.60;1750175;82;20899;-76
2021/06/05 04:40:30;;;;;;;12.98;10.50;;;;;;;13.36;77.50;98572.72;1744532;81;21005;-76
2021/06/05 04:42:56;;;;;;;15.18;10.23;;;;;;;13.36;76.94;98574.89;1736228;82;21011;-76
2021/06/05 04:45:22;;;;;;;14.28;10.93;;;;;;;13.38;76.85;98580.86;1736211;82;21100;-76
2021/06/05 04:47:48;;;;;;;17.40;10.93;;;;;;;13.48;76.72;98588.12;1736145;82;21005;-76
2021/06/05 04:50:16;;;;;;;16.55;10.93;;;;;;;13.54;76.77;98587.00;1736754;82;21069;-76
2021/06/05 04:52:42;;;;;;;19.15;13.13;;;;;;;13.46;76.48;98581.61;1736083;81;21108;-76
2021/06/05 04:55:10;;;;;;;14.85;12.85;;;;;;;13.45;76.99;98592.24;1736475;82;20985;-76
2021/06/05 04:57:36;;;;;;;23.00;14.38;;;;;;;13.47;76.74;98598.20;1736374;82;21498;-76
2021/06/05 05:00:09;;;;;;;19.67;13.95;;;;;;;13.52;76.42;98600.09;1736912;81;21854;-76
2021/06/05 05:02:35;;;;;;;20.57;11.55;;;;;;;13.52;76.12;98599.54;1736163;82;20939;-76
2021/06/05 05:05:04;;;;;;;15.10;11.60;;;;;;;13.52;76.21;98603.63;1736450;82;21073;-76
2021/06/05 05:07:30;;;;;;;;;;;;;;;13.42;76.70;98601.54;1738659;82;20963;-77
2021/06/05 05:09:56;;;;;;;17.00;11.90;;;;;;;13.41;76.79;98602.61;1736618;82;20256;-77
2021/06/05 05:12:22;;;;;;;18.23;11.65;;;;;;;13.36;76.78;98611.64;1736474;82;20912;-76
2021/06/05 05:14:48;;;;;;;15.23;11.35;;;;;;;13.39;76.71;98620.59;1736393;82;21022;-76
2021/06/05 05:17:14;;;;;;;16.87;12.00;;;;;;;13.40;76.87;98608.60;1736149;81;20997;-76
2021/06/05 05:19:40;;;;;;;13.78;11.15;;;;;;;13.47;76.97;98606.37;1736199;82;21462;-76
2021/06/05 05:22:06;;;;;;;13.32;10.65;;;;;;;13.52;77.14;98602.27;1736100;82;21692;-76
2021/06/05 05:24:32;;;;;;;15.95;11.18;;;;;;;13.54;78.23;98604.14;1736256;82;21727;-76
2021/06/05 05:27:01;;;;;;;16.57;13.35;;;;;;;13.57;78.75;98611.47;1736149;82;20966;-76
2021/06/05 05:29:27;;;;;;;;;;;;;;;13.57;78.36;98612.84;1717864;82;21009;-76
2021/06/05 05:31:53;;;;;;;15.70;12.20;;;;;;;13.67;78.60;98611.38;1736168;81;20158;-76
2021/06/05 05:34:19;;;;;;;15.88;10.88;;;;;;;13.73;77.59;98614.34;1736202;82;21010;-76
2021/06/05 05:36:45;;;;;;;17.35;12.40;;;;;;;13.73;77.78;98613.78;1736161;82;21181;-76
2021/06/05 05:39:15;;;;;;;22.17;16.30;;;;;;;13.62;77.93;98623.15;1736067;82;20965;-76
2021/06/05 05:41:43;;;;;;;20.70;15.23;;;;;;;13.61;78.23;98630.24;1746830;81;21072;-77
2021/06/05 05:44:09;;;;;;;20.35;16.20;;;;;;;13.49;78.31;98625.14;1750245;82;20970;-77
2021/06/05 05:46:35;;;;;;;18.77;13.80;;;;;;;13.52;78.43;98631.40;1750336;82;20943;-77
2021/06/05 05:49:02;;;;;;;18.00;12.63;;;;;;;13.54;78.43;98622.39;1750285;81;21120;-77
2021/06/05 05:51:28;;;;;;;16.07;11.73;;;;;;;13.53;81.07;98622.94;1750261;82;20961;-77
2021/06/05 05:53:54;;;;;;;17.23;13.45;;;;;;;13.58;78.96;98621.27;1750098;82;20866;-77
2021/06/05 05:56:24;;;;;;;13.93;11.93;;;;;;;13.63;79.70;98620.69;1750441;82;20866;-77
2021/06/05 05:58:51;;;;;;;15.65;11.73;;;;;;;13.69;80.17;98619.55;1750165;82;20958;-76
2021/06/05 06:01:20;;;;;;;14.78;10.90;;;;;;;13.80;79.86;98621.08;1750200;81;20949;-76
2021/06/05 06:03:47;;;;;;;;;;;;;;;13.80;79.47;98621.63;1752557;82;21005;-76
2021/06/05 06:06:13;;;;;;;16.23;10.72;;;;;;;13.78;79.36;98617.84;1750245;82;20171;-76
2021/06/05 06:08:39;;;;;;;15.15;12.10;;;;;;;13.77;79.37;98619.49;1750492;82;20862;-76
2021/06/05 06:11:05;;;;;;;19.20;12.68;;;;;;;13.83;79.24;98619.14;1750354;81;21076;-76
2021/06/05 06:13:31;;;;;;;18.77;13.32;;;;;;;13.91;79.06;98616.89;1750324;82;21331;-76
2021/06/05 06:15:57;;;;;;;24.40;15.88;;;;;;;13.93;79.22;98617.41;1750203;81;21005;-76
2021/06/05 06:18:23;;;;;;;26.73;18.48;;;;;;;13.98;79.00;98618.19;1750243;82;20958;-76
2021/06/05 06:20:53;;;;;;;19.12;13.68;;;;;;;14.12;79.41;98626.52;1750772;82;20929;-76
2021/06/05 06:23:22;;;;;;;20.52;14.98;;;;;;;14.26;78.98;98629.35;1750196;82;21068;-76
2021/06/05 06:25:51;;;;;;;19.87;15.00;;;;;;;14.35;78.76;98620.80;1750479;82;21121;-76
2021/06/05 06:28:25;;;;;;;13.45;11.80;;;;;;;14.44;78.35;98621.81;1750053;82;20949;-76
2021/06/05 06:30:51;;;;;;;26.37;20.08;;;;;;;14.40;78.75;98609.85;1750032;81;20950;-77
2021/06/05 06:33:18;;;;;;;38.42;26.33;;;;;;;14.21;79.19;98607.63;1749986;82;20958;-77
2021/06/05 06:35:44;;;;;;;23.27;17.82;;;;;;;14.15;79.66;98603.31;1750280;81;21076;-77
2021/06/05 06:38:20;;;;;;;20.40;15.85;;;;;;;14.07;80.35;98606.11;1750261;82;21033;-77
2021/06/05 06:40:46;;;;;;;12.43;10.78;;;;;;;14.12;80.39;98606.08;1750383;81;20922;-76
2021/06/05 06:43:15;;;;;;;16.75;11.88;;;;;;;14.13;80.56;98602.80;1750291;82;20962;-76
2021/06/05 06:45:42;;;;;;;14.73;11.03;;;;;;;14.16;79.99;98603.02;1750277;81;20966;-76
2021/06/05 06:48:08;;;;;;;19.67;12.13;;;;;;;14.23;79.88;98608.95;1750138;82;21025;-76
2021/06/05 06:50:34;;;;;;;17.20;13.55;;;;;;;14.33;79.83;98603.93;1750263;82;21123;-76
2021/06/05 06:53:00;;;;;;;15.72;12.80;;;;;;;14.47;79.87;98598.64;1749940;82;21049;-76
2021/06/05 06:55:26;;;;;;;20.88;14.33;;;;;;;14.50;79.35;98598.05;1750477;82;21040;-76
2021/06/05 06:57:52;;;;;;;21.40;14.55;;;;;;;14.48;79.30;98605.16;1750596;82;21292;-76
2021/06/05 07:00:32;;;;;;;15.98;13.30;;;;;;;14.54;79.33;98604.55;1750287;82;20980;-76
2021/06/05 07:02:58;;;;;;;13.62;11.35;;;;;;;14.38;79.33;98595.16;1749890;81;20985;-77
2021/06/05 07:05:25;;;;;;;18.17;13.08;;;;;;;14.40;79.50;98591.58;1750012;81;21462;-77
2021/06/05 07:07:50;;;;;;;16.95;12.68;;;;;;;14.46;79.44;98599.19;1750157;82;20906;-77
2021/06/05 07:10:19;;;;;;;14.98;12.55;;;;;;;14.53;79.29;98601.02;1750274;82;20870;-77
2021/06/05 07:12:46;;;;;;;17.37;13.72;;;;;;;14.60;79.66;98587.81;1723172;82;21312;-77
2021/06/05 07:15:14;;;;;;;20.45;16.25;;;;;;;14.56;79.54;98577.24;1750340;82;21187;-77
2021/06/05 07:17:40;;;;;;;18.00;13.55;;;;;;;14.51;79.79;98569.11;1749978;82;21563;-77
2021/06/05 07:20:07;;;;;;;17.02;13.38;;;;;;;14.54;79.72;98561.73;1750355;82;20886;-77
2021/06/05 07:22:33;;;;;;;14.43;12.00;;;;;;;14.54;79.93;98563.65;1750122;82;21343;-77
2021/06/05 07:24:59;;;;;;;16.12;11.55;;;;;;;14.57;80.30;98573.41;1750306;82;20941;-77
2021/06/05 07:27:25;;;;;;;24.85;12.30;;;;;;;14.63;79.74;98582.34;1750128;82;21074;-77
2021/06/05 07:29:51;;;;;;;16.75;10.30;;;;;;;14.75;79.88;98569.64;1750420;82;20888;-77
2021/06/05 07:32:17;;;;;;;15.58;11.28;;;;;;;14.68;79.21;98563.17;1750270;82;21008;-77
2021/06/05 07:34:43;;;;;;;18.65;10.98;;;;;;;14.64;79.23;98591.59;1749993;82;20901;-77
2021/06/05 07:37:11;;;;;;;16.25;12.25;;;;;;;14.62;79.43;98593.81;1750646;81;20842;-77
2021/06/05 07:39:37;;;;;;;15.53;10.53;;;;;;;14.56;81.06;98591.43;1750227;82;21447;-77
2021/06/05 07:42:06;;;;;;;16.97;13.38;;;;;;;14.61;80.13;98583.17;1741013;82;20982;-77
2021/06/05 07:44:32;;;;;;;33.53;25.85;;;;;;;14.52;80.74;98567.20;1735980;82;21340;-77
2021/06/05 07:46:59;;;;;;;23.38;18.75;;;;;;;14.41;80.85;98559.67;1736276;82;21010;-77
2021/06/05 07:49:28;;;;;;;19.73;15.80;;;;;;;14.39;81.08;98554.52;1736064;82;20946;-77
2021/06/05 07:51:55;;;;;;;18.10;16.00;;;;;;;14.42;80.71;98557.20;1736534;82;21299;-77
2021/06/05 07:54:21;;;;;;;16.12;14.43;;;;;;;14.46;80.55;98559.66;1735959;82;20958;-77
2021/06/05 07:56:49;;;;;;;18.73;14.58;;;;;;;14.53;80.47;98562.03;1736243;82;20933;-77
2021/06/05 07:59:24;;;;;;;21.65;14.50;;;;;;;14.54;80.32;98557.64;1736310;82;21319;-77
2021/06/05 08:01:50;;;;;;;19.35;15.38;;;;;;;14.54;80.47;98554.11;1736199;82;21533;-76
2021/06/05 08:04:17;;;;;;;20.20;15.28;;;;;;;14.55;80.29;98548.36;1736099;82;21119;-76
2021/06/05 08:06:44;;;;;;;22.35;16.45;;;;;;;14.54;80.33;98549.46;1735968;82;20963;-76
2021/06/05 08:09:10;;;;;;;25.52;17.80;;;;;;;14.63;80.59;98548.26;1736032;82;21033;-76
2021/06/05 08:11:36;;;;;;;25.90;14.90;;;;;;;14.76;80.60;98558.98;1736264;82;21065;-76
2021/06/05 08:14:02;;;;;;;21.55;14.43;;;;;;;14.89;80.40;98565.09;1736265;81;20819;-76
2021/06/05 08:16:28;;;;;;;15.45;10.65;;;;;;;14.92;80.51;98549.48;1715775;82;21126;-76
2021/06/05 08:18:54;;;;;;;14.05;9.88;;;;;;;14.94;80.32;98549.44;1735869;82;20887;-76
2021/06/05 08:21:20;;;;;;;14.53;10.18;;;;;;;14.94;80.17;98540.44;1736232;82;20961;-76
2021/06/05 08:23:46;;;;;;;19.77;13.88;;;;;;;14.94;80.18;98526.23;1736071;81;20871;-76
2021/06/05 08:26:15;;;;;;;25.05;18.48;;;;;;;14.89;80.27;98522.80;1736595;81;21057;-76
2021/06/05 08:28:41;;;;;;;21.80;17.32;;;;;;;14.90;80.92;98518.96;1736249;82;21129;-78
2021/06/05 08:31:11;;;;;;;19.65;17.05;;;;;;;14.94;80.99;98519.42;1736941;81;20886;-77
2021/06/05 08:33:37;;;;;;;22.62;19.12;;;;;;;15.06;81.04;98500.44;1736228;82;21442;-77
2021/06/05 08:36:06;;;;;;;29.25;21.15;;;;;;;15.22;81.32;98493.63;1736369;82;21013;-77
2021/06/05 08:38:32;;;;;;;19.92;16.73;;;;;;;15.47;81.11;98497.30;1736318;81;20948;-77
2021/06/05 08:41:06;;;;;;;20.10;14.23;;;;;;;15.68;80.38;98497.75;1715470;81;21113;-77
2021/06/05 08:43:48;;;;;;;16.30;12.75;;;;;;;15.94;80.33;98491.25;1734660;82;20935;-76
2021/06/05 08:46:22;;;;;;;16.10;12.18;;;;;;;16.27;79.87;98487.86;1736109;82;20958;-77
2021/06/05 08:48:48;;;;;;;16.65;12.00;;;;;;;16.45;79.38;98482.56;1736297;82;21018;-77
2021/06/05 08:51:32;;;;;;;14.90;13.05;;;;;;;16.58;77.85;98481.73;1736784;82;21021;-77
2021/06/05 08:54:22;;;;;;;14.20;12.15;;;;;;;16.89;77.55;98477.20;1732878;82;22066;-76
2021/06/05 08:56:48;;;;;;;14.07;10.15;;;;;;;17.49;76.58;98466.41;1735839;82;20943;-77
2021/06/05 08:59:14;;;;;;;13.83;10.25;;;;;;;18.11;75.63;98458.16;1736344;82;20835;-77
2021/06/05 09:01:44;;;;;;;10.82;8.43;;;;;;;18.50;73.10;98454.53;1736469;82;21411;-77
2021/06/05 09:04:15;;;;;;;11.73;8.53;;;;;;;19.11;71.42;98456.74;1736095;82;21388;-77
2021/06/05 09:07:00;;;;;;;13.53;9.10;;;;;;;19.15;71.76;98453.61;1736411;81;21103;-77
2021/06/05 09:09:33;;;;;;;14.38;11.28;;;;;;;19.25;70.31;98452.45;1736063;82;20982;-76
2021/06/05 09:12:00;;;;;;;9.95;8.20;;;;;;;19.10;70.26;98448.84;1736339;82;20958;-77
2021/06/05 09:14:26;;;;;;;13.90;9.45;;;;;;;19.03;69.86;98446.58;1736245;82;20986;-77
2021/06/05 09:16:52;;;;;;;11.78;9.75;;;;;;;19.02;69.85;98445.53;1736460;82;20954;-77
2021/06/05 09:19:31;;;;;;;11.90;8.35;;;;;;;19.13;69.48;98453.09;1736139;82;21007;-77
2021/06/05 09:22:11;;;;;;;9.50;7.80;;;;;;;19.18;68.28;98444.47;1736380;81;21526;-76
2021/06/05 09:24:51;;;;;;;15.03;9.83;;;;;;;19.03;68.72;98447.14;1736249;82;21466;-77
2021/06/05 09:27:22;;;;;;;13.50;10.85;;;;;;;19.01;68.90;98445.30;1715382;82;21613;-76
2021/06/05 09:30:05;;;;;;;13.32;8.95;;;;;;;19.11;68.51;98440.27;1715438;82;20990;-77
2021/06/05 09:32:55;;;;;;;17.45;11.57;;;;;;;19.19;67.70;98440.02;1736548;82;21018;-76
2021/06/05 09:35:30;;;;;;;13.38;10.63;;;;;;;19.12;67.85;98436.38;1736387;81;21007;-76
2021/06/05 09:38:19;;;;;;;10.85;7.65;;;;;;;19.19;67.47;98440.02;1735719;82;20946;-76
2021/06/05 09:41:38;;;;;;;11.68;8.75;;;;;;;19.18;67.16;98445.27;1735860;82;20958;-76
2021/06/05 09:44:33;;;;;;;12.23;8.78;;;;;;;19.03;67.93;98436.16;1736387;82;20998;-76
2021/06/05 09:47:03;;;;;;;13.80;9.10;;;;;;;19.11;68.06;98437.52;1727452;82;21848;-76
2021/06/05 09:49:39;;;;;;;12.18;9.60;;;;;;;19.09;68.57;98440.36;1736093;81;21391;-76
2021/06/05 09:52:15;;;;;;;12.55;7.47;;;;;;;19.03;69.23;98445.20;1736300;82;20994;-76
2021/06/05 09:54:47;;;;;;;10.93;7.85;;;;;;;19.15;69.00;98441.81;1715136;82;21042;-76
2021/06/05 09:57:33;;;;;;;9.88;8.23;;;;;;;19.10;68.14;98439.22;1714789;82;20970;-76
2021/06/05 10:00:07;;;;;;;13.62;8.08;;;;;;;19.05;68.02;98437.44;1736521;81;21380;-77
2021/06/05 10:02:34;;;;;;;11.20;8.40;;;;;;;19.13;68.51;98442.11;1736651;81;20887;-77
2021/06/05 10:05:29;;;;;;;12.43;8.15;;;;;;;19.36;68.66;98439.17;1736148;82;21065;-77
2021/06/05 10:08:00;;;;;;;9.58;7.03;;;;;;;19.61;68.84;98443.81;1736059;82;20915;-77
2021/06/05 10:10:39;;;;;;;12.10;8.38;;;;;;;19.72;67.93;98427.77;1715863;82;21070;-77
2021/06/05 10:13:12;;;;;;;13.72;12.18;;;;;;;19.46;68.42;98419.58;1736468;81;21119;-77
2021/06/05 10:16:07;;;;;;;65.03;53.00;;;;;;;19.45;68.58;98414.66;1715455;82;20974;-77
2021/06/05 10:18:38;;;;;;;22.77;18.15;;;;;;;19.27;69.34;98409.55;1736132;82;20919;-76
2021/06/05 10:21:09;;;;;;;15.25;11.78;;;;;;;19.03;70.58;98401.83;1735794;82;21387;-76
2021/06/05 10:23:39;;;;;;;10.15;7.62;;;;;;;19.11;70.46;98414.74;1736117;82;20915;-77
2021/06/05 10:26:13;;;;;;;11.08;6.90;;;;;;;19.24;70.02;98406.09;1736264;82;21902;-77
2021/06/05 10:28:44;;;;;;;8.28;6.90;;;;;;;19.19;70.04;98403.50;1729212;82;21426;-77
2021/06/05 10:31:15;;;;;;;12.15;8.78;;;;;;;19.19;69.83;98397.44;1736306;82;20970;-77
2021/06/05 10:33:51;;;;;;;8.08;7.03;;;;;;;19.18;70.06;98392.28;1736066;82;21013;-77
2021/06/05 10:36:31;;;;;;;9.20;6.72;;;;;;;19.27;69.82;98389.74;1717570;82;20970;-76
2021/06/05 10:39:05;;;;;;;10.88;7.53;;;;;;;19.31;69.72;98388.51;1736237;82;21364;-76
2021/06/05 10:41:38;;;;;;;12.68;9.13;;;;;;;19.62;69.55;98382.78;1736664;81;20939;-77
2021/06/05 10:44:06;;;;;;;15.55;9.23;;;;;;;20.19;68.98;98376.24;1722448;82;21004;-77
2021/06/05 10:46:45;;;;;;;13.50;8.30;;;;;;;21.23;67.69;98377.30;1750278;81;20966;-77
2021/06/05 10:49:34;;;;;;;10.88;6.92;;;;;;;21.94;65.86;98375.55;1749914;82;20942;-77
2021/06/05 10:52:32;;;;;;;8.55;6.10;;;;;;;23.04;62.99;98374.73;1723191;82;21143;-77
2021/06/05 10:55:12;;;;;;;9.08;6.22;;;;;;;26.09;55.37;98358.12;1750374;82;21025;-76
2021/06/05 10:57:41;;;;;;;8.30;6.03;;;;;;;27.76;52.49;98362.09;1750275;82;21379;-76
2021/06/05 11:00:43;;;;;;;10.78;7.53;;;;;;;29.54;48.22;98346.82;1750306;81;21002;-76
2021/06/05 11:03:32;;;;;;;10.70;6.85;;;;;;;30.76;44.00;98347.44;1750344;82;21414;-78
2021/06/05 11:06:07;;;;;;;8.05;5.75;;;;;;;31.27;41.43;98350.20;1750754;82;21081;-77
2021/06/05 11:08:49;;;;;;;7.17;5.12;;;;;;;31.51;42.59;98342.23;1749993;82;20941;-77
2021/06/05 11:11:35;;;;;;;6.80;5.17;;;;;;;32.41;40.38;98339.46;1750292;82;20985;-78
2021/06/05 11:14:04;;;;;;;6.60;5.35;;;;;;;33.24;35.16;98335.17;1749995;82;20961;-77
2021/06/05 11:16:59;;;;;;;7.33;4.30;;;;;;;32.76;35.54;98335.43;1750455;82;21009;-77
2021/06/05 11:19:43;;;;;;;8.95;3.90;;;;;;;32.88;35.05;98328.48;1745604;82;21921;-77
2021/06/05 11:22:16;;;;;;;7.45;4.50;;;;;;;33.35;31.76;98328.80;1750232;81;21434;-77
2021/06/05 11:24:45;;;;;;;7.08;4.17;;;;;;;32.24;35.03;98328.60;1750000;81;20915;-78
2021/06/05 11:27:15;;;;;;;6.08;4.03;;;;;;;33.26;33.96;98316.52;1750271;82;21025;-78
2021/06/05 11:29:51;;;;;;;5.97;4.58;;;;;;;33.17;35.00;98318.46;1746040;82;20915;-78
2021/06/05 11:32:37;;;;;;;5.50;5.00;;;;;;;33.53;33.91;98314.51;1722581;82;21109;-77
2021/06/05 11:35:10;;;;;;;9.65;6.70;;;;;;;33.81;32.33;98308.22;1750323;82;21454;-78